< < Back
Terminal Aerodrome Forecast


Current Version              Previous Versions:   1  2  3  4  5  6  7  8  9  

Terminal Aerodrome Forecast

958
FTUS44 KOHX 251100
TAFBNA
TAF
KBNA 251140Z 2512/2612 17008G17KT P6SM BKN080 OVC150
     FM251900 21010G18KT 4SM -RA BR OVC025
     FM252200 24010G18KT 2SM -RA BR OVC007
     FM260200 30007KT 4SM -RA BR OVC007
     FM260900 33011G19KT P6SM -SHRA OVC007=

Latest METAR

026
SAUS70 KWBC 251800 RRE
MTRBNA
METAR KBNA 251753Z 19016G24KT 10SM BKN110 BKN200 13/02 A2967 RMK AO2
SLP048 T01330022 10133 21006 58033 $


USA.gov is the U.S. government's official web portal to all federal, state and local government web resources and services.